sensor_id;sensor_type;location;lat;lon;timestamp;P1;durP1;ratioP1;P2;durP2;ratioP2
20369;SDS011;10344;47.592;9.600;2022-10-24T00:02:22;6.47;;;2.05;;
20369;SDS011;10344;47.592;9.600;2022-10-24T00:04:49;4.38;;;1.83;;
20369;SDS011;10344;47.592;9.600;2022-10-24T00:07:16;5.93;;;2.30;;
20369;SDS011;10344;47.592;9.600;2022-10-24T00:09:44;3.85;;;2.10;;
20369;SDS011;10344;47.592;9.600;2022-10-24T00:12:20;4.82;;;1.80;;
20369;SDS011;10344;47.592;9.600;2022-10-24T00:14:48;6.47;;;2.70;;
20369;SDS011;10344;47.592;9.600;2022-10-24T00:17:14;6.60;;;2.13;;
20369;SDS011;10344;47.592;9.600;2022-10-24T00:19:40;5.20;;;2.03;;
20369;SDS011;10344;47.592;9.600;2022-10-24T00:22:07;6.50;;;2.15;;
20369;SDS011;10344;47.592;9.600;2022-10-24T00:27:27;7.53;;;2.50;;
20369;SDS011;10344;47.592;9.600;2022-10-24T00:30:00;6.40;;;2.27;;
20369;SDS011;10344;47.592;9.600;2022-10-24T00:32:26;7.30;;;2.72;;
20369;SDS011;10344;47.592;9.600;2022-10-24T00:34:53;7.68;;;2.50;;
20369;SDS011;10344;47.592;9.600;2022-10-24T00:37:19;6.65;;;2.70;;
20369;SDS011;10344;47.592;9.600;2022-10-24T00:39:45;7.90;;;2.73;;
20369;SDS011;10344;47.592;9.600;2022-10-24T00:42:11;4.70;;;2.60;;
20369;SDS011;10344;47.592;9.600;2022-10-24T00:44:37;6.60;;;2.50;;
20369;SDS011;10344;47.592;9.600;2022-10-24T00:47:08;5.55;;;2.33;;
20369;SDS011;10344;47.592;9.600;2022-10-24T00:56:40;6.25;;;2.40;;
20369;SDS011;10344;47.592;9.600;2022-10-24T00:59:25;7.63;;;2.60;;
20369;SDS011;10344;47.592;9.600;2022-10-24T01:02:18;8.38;;;2.50;;
20369;SDS011;10344;47.592;9.600;2022-10-24T01:19:28;4.88;;;2.50;;
20369;SDS011;10344;47.592;9.600;2022-10-24T01:22:23;6.25;;;2.60;;
20369;SDS011;10344;47.592;9.600;2022-10-24T01:28:31;5.50;;;2.50;;
20369;SDS011;10344;47.592;9.600;2022-10-24T01:37:46;7.00;;;2.78;;
20369;SDS011;10344;47.592;9.600;2022-10-24T01:41:14;6.03;;;2.60;;
20369;SDS011;10344;47.592;9.600;2022-10-24T01:43:48;7.63;;;2.50;;
20369;SDS011;10344;47.592;9.600;2022-10-24T01:47:18;6.72;;;2.80;;
20369;SDS011;10344;47.592;9.600;2022-10-24T01:50:16;9.55;;;2.80;;
20369;SDS011;10344;47.592;9.600;2022-10-24T01:52:47;6.45;;;2.83;;
20369;SDS011;10344;47.592;9.600;2022-10-24T01:55:17;6.83;;;2.80;;
20369;SDS011;10344;47.592;9.600;2022-10-24T01:57:46;5.90;;;2.70;;
20369;SDS011;10344;47.592;9.600;2022-10-24T02:00:21;7.93;;;2.90;;
20369;SDS011;10344;47.592;9.600;2022-10-24T02:06:16;5.73;;;2.57;;
20369;SDS011;10344;47.592;9.600;2022-10-24T02:08:51;8.70;;;2.83;;
20369;SDS011;10344;47.592;9.600;2022-10-24T02:11:49;8.35;;;2.60;;
20369;SDS011;10344;47.592;9.600;2022-10-24T02:14:33;6.80;;;3.13;;
20369;SDS011;10344;47.592;9.600;2022-10-24T02:17:06;8.40;;;2.73;;
20369;SDS011;10344;47.592;9.600;2022-10-24T02:20:09;5.25;;;2.55;;
20369;SDS011;10344;47.592;9.600;2022-10-24T02:23:10;5.53;;;2.30;;
20369;SDS011;10344;47.592;9.600;2022-10-24T02:26:03;4.80;;;2.40;;
20369;SDS011;10344;47.592;9.600;2022-10-24T02:28:58;8.48;;;2.72;;
20369;SDS011;10344;47.592;9.600;2022-10-24T02:31:47;3.95;;;2.10;;
20369;SDS011;10344;47.592;9.600;2022-10-24T02:34:20;6.90;;;2.20;;
20369;SDS011;10344;47.592;9.600;2022-10-24T02:37:04;4.93;;;2.17;;
20369;SDS011;10344;47.592;9.600;2022-10-24T02:39:47;4.20;;;2.28;;
20369;SDS011;10344;47.592;9.600;2022-10-24T02:42:31;7.83;;;2.10;;
20369;SDS011;10344;47.592;9.600;2022-10-24T02:45:41;7.55;;;2.75;;
20369;SDS011;10344;47.592;9.600;2022-10-24T02:48:10;6.05;;;2.58;;
20369;SDS011;10344;47.592;9.600;2022-10-24T02:51:11;7.20;;;2.80;;
20369;SDS011;10344;47.592;9.600;2022-10-24T02:53:41;9.57;;;2.47;;
20369;SDS011;10344;47.592;9.600;2022-10-24T02:56:29;5.50;;;2.13;;
20369;SDS011;10344;47.592;9.600;2022-10-24T02:59:35;4.30;;;2.25;;
20369;SDS011;10344;47.592;9.600;2022-10-24T03:02:07;7.63;;;2.37;;
20369;SDS011;10344;47.592;9.600;2022-10-24T03:04:42;7.00;;;2.00;;
20369;SDS011;10344;47.592;9.600;2022-10-24T03:07:24;3.93;;;1.83;;
20369;SDS011;10344;47.592;9.600;2022-10-24T03:10:05;3.08;;;1.77;;
20369;SDS011;10344;47.592;9.600;2022-10-24T03:13:11;7.83;;;2.80;;
20369;SDS011;10344;47.592;9.600;2022-10-24T03:15:52;6.80;;;2.97;;
20369;SDS011;10344;47.592;9.600;2022-10-24T03:18:48;6.00;;;2.83;;
20369;SDS011;10344;47.592;9.600;2022-10-24T03:21:18;6.97;;;3.17;;
20369;SDS011;10344;47.592;9.600;2022-10-24T03:23:51;7.30;;;3.05;;
20369;SDS011;10344;47.592;9.600;2022-10-24T03:26:18;8.18;;;3.08;;
20369;SDS011;10344;47.592;9.600;2022-10-24T03:28:46;5.93;;;2.60;;
20369;SDS011;10344;47.592;9.600;2022-10-24T03:31:39;7.40;;;2.97;;
20369;SDS011;10344;47.592;9.600;2022-10-24T03:34:18;6.72;;;3.10;;
20369;SDS011;10344;47.592;9.600;2022-10-24T03:36:54;7.27;;;2.87;;
20369;SDS011;10344;47.592;9.600;2022-10-24T03:39:22;4.80;;;2.55;;
20369;SDS011;10344;47.592;9.600;2022-10-24T03:42:35;6.25;;;3.22;;
20369;SDS011;10344;47.592;9.600;2022-10-24T03:45:09;8.13;;;3.30;;
20369;SDS011;10344;47.592;9.600;2022-10-24T03:48:22;6.20;;;3.10;;
20369;SDS011;10344;47.592;9.600;2022-10-24T03:51:58;4.60;;;2.40;;
20369;SDS011;10344;47.592;9.600;2022-10-24T03:58:40;8.77;;;2.78;;
20369;SDS011;10344;47.592;9.600;2022-10-24T04:01:29;4.95;;;2.50;;
20369;SDS011;10344;47.592;9.600;2022-10-24T04:04:05;3.85;;;2.10;;
20369;SDS011;10344;47.592;9.600;2022-10-24T04:06:53;5.32;;;2.28;;
20369;SDS011;10344;47.592;9.600;2022-10-24T04:09:26;4.50;;;2.58;;
20369;SDS011;10344;47.592;9.600;2022-10-24T04:12:55;7.65;;;2.83;;
20369;SDS011;10344;47.592;9.600;2022-10-24T04:15:23;6.03;;;2.55;;
20369;SDS011;10344;47.592;9.600;2022-10-24T04:17:49;7.47;;;2.90;;
20369;SDS011;10344;47.592;9.600;2022-10-24T04:20:14;5.35;;;2.70;;
20369;SDS011;10344;47.592;9.600;2022-10-24T04:22:44;6.50;;;2.75;;
20369;SDS011;10344;47.592;9.600;2022-10-24T04:25:14;6.28;;;2.92;;
20369;SDS011;10344;47.592;9.600;2022-10-24T04:28:14;5.85;;;2.67;;
20369;SDS011;10344;47.592;9.600;2022-10-24T04:30:40;7.50;;;3.20;;
20369;SDS011;10344;47.592;9.600;2022-10-24T04:36:30;6.75;;;2.75;;
20369;SDS011;10344;47.592;9.600;2022-10-24T04:39:04;6.23;;;2.90;;
20369;SDS011;10344;47.592;9.600;2022-10-24T04:41:32;7.18;;;2.63;;
20369;SDS011;10344;47.592;9.600;2022-10-24T04:44:02;4.75;;;2.53;;
20369;SDS011;10344;47.592;9.600;2022-10-24T04:46:36;7.05;;;3.40;;
20369;SDS011;10344;47.592;9.600;2022-10-24T04:49:13;5.38;;;2.50;;
20369;SDS011;10344;47.592;9.600;2022-10-24T04:52:07;4.03;;;2.30;;
20369;SDS011;10344;47.592;9.600;2022-10-24T04:54:55;6.97;;;2.78;;
20369;SDS011;10344;47.592;9.600;2022-10-24T04:57:21;8.38;;;2.80;;
20369;SDS011;10344;47.592;9.600;2022-10-24T05:00:10;5.30;;;2.50;;
20369;SDS011;10344;47.592;9.600;2022-10-24T05:02:43;7.53;;;3.00;;
20369;SDS011;10344;47.592;9.600;2022-10-24T05:05:15;6.25;;;2.60;;
20369;SDS011;10344;47.592;9.600;2022-10-24T05:07:49;7.22;;;2.90;;
20369;SDS011;10344;47.592;9.600;2022-10-24T05:10:31;6.68;;;2.40;;
20369;SDS011;10344;47.592;9.600;2022-10-24T05:16:09;3.78;;;2.40;;
20369;SDS011;10344;47.592;9.600;2022-10-24T05:19:01;5.97;;;2.47;;
20369;SDS011;10344;47.592;9.600;2022-10-24T05:21:58;4.88;;;2.13;;
20369;SDS011;10344;47.592;9.600;2022-10-24T05:24:28;7.43;;;2.63;;
20369;SDS011;10344;47.592;9.600;2022-10-24T05:27:10;9.95;;;3.30;;
20369;SDS011;10344;47.592;9.600;2022-10-24T05:29:40;4.93;;;2.60;;
20369;SDS011;10344;47.592;9.600;2022-10-24T05:32:10;5.03;;;2.30;;
20369;SDS011;10344;47.592;9.600;2022-10-24T05:34:45;8.23;;;2.60;;
20369;SDS011;10344;47.592;9.600;2022-10-24T05:37:11;8.32;;;3.42;;
20369;SDS011;10344;47.592;9.600;2022-10-24T05:39:40;6.13;;;3.00;;
20369;SDS011;10344;47.592;9.600;2022-10-24T05:42:11;7.60;;;2.95;;
20369;SDS011;10344;47.592;9.600;2022-10-24T05:44:51;7.82;;;3.05;;
20369;SDS011;10344;47.592;9.600;2022-10-24T05:48:11;8.20;;;3.40;;
20369;SDS011;10344;47.592;9.600;2022-10-24T05:51:25;7.38;;;3.03;;
20369;SDS011;10344;47.592;9.600;2022-10-24T05:54:26;11.32;;;3.40;;
20369;SDS011;10344;47.592;9.600;2022-10-24T05:57:22;6.15;;;3.03;;
20369;SDS011;10344;47.592;9.600;2022-10-24T06:00:11;6.30;;;2.65;;
20369;SDS011;10344;47.592;9.600;2022-10-24T06:02:43;6.70;;;3.10;;
20369;SDS011;10344;47.592;9.600;2022-10-24T06:05:17;6.57;;;2.92;;
20369;SDS011;10344;47.592;9.600;2022-10-24T06:08:18;5.88;;;2.90;;
20369;SDS011;10344;47.592;9.600;2022-10-24T06:11:02;5.80;;;2.70;;
20369;SDS011;10344;47.592;9.600;2022-10-24T06:14:16;8.15;;;3.20;;
20369;SDS011;10344;47.592;9.600;2022-10-24T06:16:54;5.15;;;2.50;;
20369;SDS011;10344;47.592;9.600;2022-10-24T06:19:57;3.58;;;2.38;;
20369;SDS011;10344;47.592;9.600;2022-10-24T06:22:57;6.78;;;2.90;;
20369;SDS011;10344;47.592;9.600;2022-10-24T06:25:55;3.80;;;2.30;;
20369;SDS011;10344;47.592;9.600;2022-10-24T06:28:39;5.55;;;2.47;;
20369;SDS011;10344;47.592;9.600;2022-10-24T06:31:06;6.35;;;2.53;;
20369;SDS011;10344;47.592;9.600;2022-10-24T06:33:39;4.78;;;2.58;;
20369;SDS011;10344;47.592;9.600;2022-10-24T06:36:31;4.25;;;2.85;;
20369;SDS011;10344;47.592;9.600;2022-10-24T06:39:00;4.15;;;2.63;;
20369;SDS011;10344;47.592;9.600;2022-10-24T06:41:27;6.53;;;2.90;;
20369;SDS011;10344;47.592;9.600;2022-10-24T06:44:17;9.27;;;3.30;;
20369;SDS011;10344;47.592;9.600;2022-10-24T06:46:43;5.00;;;2.63;;
20369;SDS011;10344;47.592;9.600;2022-10-24T06:49:10;4.45;;;2.70;;
20369;SDS011;10344;47.592;9.600;2022-10-24T06:51:37;4.65;;;2.50;;
20369;SDS011;10344;47.592;9.600;2022-10-24T06:54:09;5.50;;;2.85;;
20369;SDS011;10344;47.592;9.600;2022-10-24T07:11:09;9.80;;;4.27;;
20369;SDS011;10344;47.592;9.600;2022-10-24T07:19:53;8.07;;;3.35;;
20369;SDS011;10344;47.592;9.600;2022-10-24T07:36:16;6.28;;;2.97;;
20369;SDS011;10344;47.592;9.600;2022-10-24T07:42:11;5.15;;;2.72;;
20369;SDS011;10344;47.592;9.600;2022-10-24T09:32:56;3.47;;;2.10;;
20369;SDS011;10344;47.592;9.600;2022-10-24T09:47:56;5.00;;;2.67;;
20369;SDS011;10344;47.592;9.600;2022-10-24T16:10:49;1.40;;;1.10;;
20369;SDS011;10344;47.592;9.600;2022-10-24T16:13:19;3.10;;;1.50;;
20369;SDS011;10344;47.592;9.600;2022-10-24T16:33:54;1.52;;;1.17;;
20369;SDS011;10344;47.592;9.600;2022-10-24T20:56:42;3.10;;;1.58;;
20369;SDS011;10344;47.592;9.600;2022-10-24T20:59:08;2.15;;;1.45;;
20369;SDS011;10344;47.592;9.600;2022-10-24T21:01:47;3.70;;;1.73;;
20369;SDS011;10344;47.592;9.600;2022-10-24T21:04:13;2.13;;;1.20;;
20369;SDS011;10344;47.592;9.600;2022-10-24T21:06:39;3.40;;;1.30;;
20369;SDS011;10344;47.592;9.600;2022-10-24T21:09:05;1.53;;;1.00;;
20369;SDS011;10344;47.592;9.600;2022-10-24T21:11:31;2.45;;;1.50;;
20369;SDS011;10344;47.592;9.600;2022-10-24T21:14:08;2.90;;;1.35;;
20369;SDS011;10344;47.592;9.600;2022-10-24T21:16:41;2.15;;;1.17;;
20369;SDS011;10344;47.592;9.600;2022-10-24T21:19:09;1.58;;;1.15;;
20369;SDS011;10344;47.592;9.600;2022-10-24T21:21:34;2.45;;;1.30;;
20369;SDS011;10344;47.592;9.600;2022-10-24T21:24:02;3.30;;;1.60;;
20369;SDS011;10344;47.592;9.600;2022-10-24T21:26:30;1.40;;;1.30;;
20369;SDS011;10344;47.592;9.600;2022-10-24T21:28:56;1.50;;;1.10;;
20369;SDS011;10344;47.592;9.600;2022-10-24T21:36:32;1.50;;;1.20;;
20369;SDS011;10344;47.592;9.600;2022-10-24T21:41:26;1.20;;;1.10;;
20369;SDS011;10344;47.592;9.600;2022-10-24T21:43:55;2.13;;;1.27;;
20369;SDS011;10344;47.592;9.600;2022-10-24T21:46:21;1.58;;;1.00;;
20369;SDS011;10344;47.592;9.600;2022-10-24T21:48:49;2.13;;;1.05;;
20369;SDS011;10344;47.592;9.600;2022-10-24T21:54:07;1.20;;;0.88;;
20369;SDS011;10344;47.592;9.600;2022-10-24T21:56:56;3.10;;;0.98;;
20369;SDS011;10344;47.592;9.600;2022-10-24T21:59:29;4.10;;;1.73;;
20369;SDS011;10344;47.592;9.600;2022-10-24T22:02:05;3.60;;;1.20;;
20369;SDS011;10344;47.592;9.600;2022-10-24T22:04:51;3.03;;;1.10;;
20369;SDS011;10344;47.592;9.600;2022-10-24T22:07:23;1.40;;;1.15;;
20369;SDS011;10344;47.592;9.600;2022-10-24T22:13:26;0.90;;;0.90;;
20369;SDS011;10344;47.592;9.600;2022-10-24T22:19:02;1.38;;;1.00;;
20369;SDS011;10344;47.592;9.600;2022-10-24T22:21:38;1.73;;;1.23;;
20369;SDS011;10344;47.592;9.600;2022-10-24T22:24:14;1.10;;;1.00;;
20369;SDS011;10344;47.592;9.600;2022-10-24T22:26:45;2.28;;;1.10;;
20369;SDS011;10344;47.592;9.600;2022-10-24T22:29:13;4.60;;;1.27;;
20369;SDS011;10344;47.592;9.600;2022-10-24T22:31:40;1.33;;;1.03;;
20369;SDS011;10344;47.592;9.600;2022-10-24T22:34:07;2.15;;;1.23;;
